sensor_id;sensor_type;location;lat;lon;timestamp;temperature;humidity
34099;DHT22;20374;49.474;10.944;2022-11-15T00:02:24;6.50;99.90
34099;DHT22;20374;49.474;10.944;2022-11-15T00:05:08;6.50;99.90
34099;DHT22;20374;49.474;10.944;2022-11-15T00:07:53;6.50;99.90
34099;DHT22;20374;49.474;10.944;2022-11-15T00:10:38;6.50;99.90
34099;DHT22;20374;49.474;10.944;2022-11-15T00:13:23;6.60;99.90
34099;DHT22;20374;49.474;10.944;2022-11-15T00:16:09;6.70;99.90
34099;DHT22;20374;49.474;10.944;2022-11-15T00:18:54;6.70;99.90
34099;DHT22;20374;49.474;10.944;2022-11-15T00:21:38;6.80;99.90
34099;DHT22;20374;49.474;10.944;2022-11-15T00:24:23;6.80;99.90
34099;DHT22;20374;49.474;10.944;2022-11-15T00:27:08;6.80;99.90
34099;DHT22;20374;49.474;10.944;2022-11-15T00:29:52;6.80;99.90
34099;DHT22;20374;49.474;10.944;2022-11-15T00:32:37;6.80;99.90
34099;DHT22;20374;49.474;10.944;2022-11-15T00:35:22;6.80;99.90
34099;DHT22;20374;49.474;10.944;2022-11-15T00:38:06;6.80;99.90
34099;DHT22;20374;49.474;10.944;2022-11-15T00:40:51;6.70;99.90
34099;DHT22;20374;49.474;10.944;2022-11-15T00:43:35;6.70;99.90
34099;DHT22;20374;49.474;10.944;2022-11-15T00:46:20;6.60;99.90
34099;DHT22;20374;49.474;10.944;2022-11-15T00:49:05;6.60;99.90
34099;DHT22;20374;49.474;10.944;2022-11-15T00:51:49;6.60;99.90
34099;DHT22;20374;49.474;10.944;2022-11-15T00:54:37;6.60;99.90
34099;DHT22;20374;49.474;10.944;2022-11-15T00:57:21;6.60;99.90
34099;DHT22;20374;49.474;10.944;2022-11-15T01:00:07;6.50;99.90
34099;DHT22;20374;49.474;10.944;2022-11-15T01:02:52;6.50;99.90
34099;DHT22;20374;49.474;10.944;2022-11-15T01:05:39;6.40;99.90
34099;DHT22;20374;49.474;10.944;2022-11-15T01:08:24;6.40;99.90
34099;DHT22;20374;49.474;10.944;2022-11-15T01:11:11;6.30;99.90
34099;DHT22;20374;49.474;10.944;2022-11-15T01:13:55;6.30;99.90
34099;DHT22;20374;49.474;10.944;2022-11-15T01:16:40;6.20;99.90
34099;DHT22;20374;49.474;10.944;2022-11-15T01:19:25;6.30;99.90
34099;DHT22;20374;49.474;10.944;2022-11-15T01:22:09;6.20;99.90
34099;DHT22;20374;49.474;10.944;2022-11-15T01:24:54;6.20;99.90
34099;DHT22;20374;49.474;10.944;2022-11-15T01:27:39;6.20;99.90
34099;DHT22;20374;49.474;10.944;2022-11-15T01:30:23;6.10;99.90
34099;DHT22;20374;49.474;10.944;2022-11-15T01:33:08;6.10;99.90
34099;DHT22;20374;49.474;10.944;2022-11-15T01:35:52;6.10;99.90
34099;DHT22;20374;49.474;10.944;2022-11-15T01:38:37;6.10;99.90
34099;DHT22;20374;49.474;10.944;2022-11-15T01:41:24;6.10;99.90
34099;DHT22;20374;49.474;10.944;2022-11-15T01:47:25;6.10;99.90
34099;DHT22;20374;49.474;10.944;2022-11-15T01:50:16;6.00;99.90
34099;DHT22;20374;49.474;10.944;2022-11-15T01:53:01;6.00;99.90
34099;DHT22;20374;49.474;10.944;2022-11-15T01:55:46;6.10;99.90
34099;DHT22;20374;49.474;10.944;2022-11-15T01:58:31;6.00;99.90
34099;DHT22;20374;49.474;10.944;2022-11-15T02:01:16;6.10;99.90
34099;DHT22;20374;49.474;10.944;2022-11-15T02:04:06;6.10;99.90
34099;DHT22;20374;49.474;10.944;2022-11-15T02:06:53;6.10;99.90
34099;DHT22;20374;49.474;10.944;2022-11-15T02:09:38;6.00;99.90
34099;DHT22;20374;49.474;10.944;2022-11-15T02:12:23;5.90;99.90
34099;DHT22;20374;49.474;10.944;2022-11-15T02:15:09;5.90;99.90
34099;DHT22;20374;49.474;10.944;2022-11-15T02:18:23;5.80;99.90
34099;DHT22;20374;49.474;10.944;2022-11-15T02:24:31;5.60;99.90
34099;DHT22;20374;49.474;10.944;2022-11-15T02:34:23;5.50;99.90
34099;DHT22;20374;49.474;10.944;2022-11-15T02:39:50;5.40;99.90
34099;DHT22;20374;49.474;10.944;2022-11-15T02:42:39;5.40;99.90
34099;DHT22;20374;49.474;10.944;2022-11-15T02:45:50;5.30;99.90
34099;DHT22;20374;49.474;10.944;2022-11-15T02:48:36;5.40;99.90
34099;DHT22;20374;49.474;10.944;2022-11-15T02:51:21;5.40;99.90
34099;DHT22;20374;49.474;10.944;2022-11-15T02:54:05;5.30;99.90
34099;DHT22;20374;49.474;10.944;2022-11-15T02:56:53;5.40;99.90
34099;DHT22;20374;49.474;10.944;2022-11-15T03:00:04;5.30;99.90
34099;DHT22;20374;49.474;10.944;2022-11-15T03:05:41;5.20;99.90
34099;DHT22;20374;49.474;10.944;2022-11-15T03:11:28;5.20;99.90
34099;DHT22;20374;49.474;10.944;2022-11-15T03:14:30;5.10;99.90
34099;DHT22;20374;49.474;10.944;2022-11-15T03:17:22;5.10;99.90
34099;DHT22;20374;49.474;10.944;2022-11-15T03:20:08;5.00;99.90
34099;DHT22;20374;49.474;10.944;2022-11-15T03:22:56;4.90;99.90
34099;DHT22;20374;49.474;10.944;2022-11-15T03:25:45;4.80;99.90
34099;DHT22;20374;49.474;10.944;2022-11-15T03:28:41;4.80;99.90
34099;DHT22;20374;49.474;10.944;2022-11-15T03:31:29;4.80;99.90
34099;DHT22;20374;49.474;10.944;2022-11-15T03:35:07;4.90;99.90
34099;DHT22;20374;49.474;10.944;2022-11-15T03:38:01;4.90;99.90
34099;DHT22;20374;49.474;10.944;2022-11-15T03:41:00;4.80;99.90
34099;DHT22;20374;49.474;10.944;2022-11-15T03:43:57;4.70;99.90
34099;DHT22;20374;49.474;10.944;2022-11-15T03:46:50;4.60;99.90
34099;DHT22;20374;49.474;10.944;2022-11-15T03:49:43;4.50;99.90
34099;DHT22;20374;49.474;10.944;2022-11-15T03:52:32;4.40;99.90
34099;DHT22;20374;49.474;10.944;2022-11-15T03:55:19;4.40;99.90
34099;DHT22;20374;49.474;10.944;2022-11-15T03:58:03;4.40;99.90
34099;DHT22;20374;49.474;10.944;2022-11-15T04:00:48;4.30;99.90
34099;DHT22;20374;49.474;10.944;2022-11-15T04:03:33;4.20;99.90
34099;DHT22;20374;49.474;10.944;2022-11-15T04:06:17;4.20;99.90
34099;DHT22;20374;49.474;10.944;2022-11-15T04:09:02;4.10;99.90
34099;DHT22;20374;49.474;10.944;2022-11-15T04:11:47;4.10;99.90
34099;DHT22;20374;49.474;10.944;2022-11-15T04:14:31;4.10;99.90
34099;DHT22;20374;49.474;10.944;2022-11-15T04:17:16;4.10;99.90
34099;DHT22;20374;49.474;10.944;2022-11-15T04:20:02;4.10;99.90
34099;DHT22;20374;49.474;10.944;2022-11-15T04:23:15;4.10;99.90
34099;DHT22;20374;49.474;10.944;2022-11-15T04:26:21;4.20;99.90
34099;DHT22;20374;49.474;10.944;2022-11-15T04:29:05;4.30;99.90
34099;DHT22;20374;49.474;10.944;2022-11-15T04:32:09;4.30;99.90
34099;DHT22;20374;49.474;10.944;2022-11-15T04:34:53;4.20;99.90
34099;DHT22;20374;49.474;10.944;2022-11-15T04:37:38;4.10;99.90
34099;DHT22;20374;49.474;10.944;2022-11-15T04:40:22;3.90;99.90
34099;DHT22;20374;49.474;10.944;2022-11-15T04:43:07;3.90;99.90
34099;DHT22;20374;49.474;10.944;2022-11-15T04:45:52;3.80;99.90
34099;DHT22;20374;49.474;10.944;2022-11-15T04:48:36;3.80;99.90
34099;DHT22;20374;49.474;10.944;2022-11-15T04:51:21;3.80;99.90
34099;DHT22;20374;49.474;10.944;2022-11-15T04:54:06;3.70;99.90
34099;DHT22;20374;49.474;10.944;2022-11-15T04:56:50;3.70;99.90
34099;DHT22;20374;49.474;10.944;2022-11-15T04:59:35;3.60;99.90
34099;DHT22;20374;49.474;10.944;2022-11-15T05:02:19;3.60;99.90
34099;DHT22;20374;49.474;10.944;2022-11-15T05:05:04;3.70;99.90
34099;DHT22;20374;49.474;10.944;2022-11-15T05:07:49;3.60;99.90
34099;DHT22;20374;49.474;10.944;2022-11-15T05:10:34;3.60;99.90
34099;DHT22;20374;49.474;10.944;2022-11-15T05:13:18;3.70;99.90
34099;DHT22;20374;49.474;10.944;2022-11-15T05:16:03;3.70;99.90
34099;DHT22;20374;49.474;10.944;2022-11-15T05:18:51;3.60;99.90
34099;DHT22;20374;49.474;10.944;2022-11-15T05:21:35;3.50;99.90
34099;DHT22;20374;49.474;10.944;2022-11-15T05:24:20;3.40;99.90
34099;DHT22;20374;49.474;10.944;2022-11-15T05:27:05;3.40;99.90
34099;DHT22;20374;49.474;10.944;2022-11-15T05:29:49;3.30;99.90
34099;DHT22;20374;49.474;10.944;2022-11-15T05:32:33;3.30;99.90
34099;DHT22;20374;49.474;10.944;2022-11-15T05:35:38;3.20;99.90
34099;DHT22;20374;49.474;10.944;2022-11-15T05:38:23;3.20;99.90
34099;DHT22;20374;49.474;10.944;2022-11-15T05:41:08;3.20;99.90
34099;DHT22;20374;49.474;10.944;2022-11-15T05:43:53;3.20;99.90
34099;DHT22;20374;49.474;10.944;2022-11-15T05:46:39;3.30;99.90
34099;DHT22;20374;49.474;10.944;2022-11-15T05:49:26;3.30;99.90
34099;DHT22;20374;49.474;10.944;2022-11-15T05:52:16;3.50;99.90
34099;DHT22;20374;49.474;10.944;2022-11-15T05:55:01;3.60;99.90
34099;DHT22;20374;49.474;10.944;2022-11-15T05:57:46;3.70;99.90
34099;DHT22;20374;49.474;10.944;2022-11-15T06:00:31;3.70;99.90
34099;DHT22;20374;49.474;10.944;2022-11-15T06:03:16;3.70;99.90
34099;DHT22;20374;49.474;10.944;2022-11-15T06:06:00;3.70;99.90
34099;DHT22;20374;49.474;10.944;2022-11-15T06:08:45;3.70;99.90
34099;DHT22;20374;49.474;10.944;2022-11-15T06:11:32;3.70;99.90
34099;DHT22;20374;49.474;10.944;2022-11-15T06:14:16;3.60;99.90
34099;DHT22;20374;49.474;10.944;2022-11-15T06:17:01;3.60;99.90
34099;DHT22;20374;49.474;10.944;2022-11-15T06:19:46;3.50;99.90
34099;DHT22;20374;49.474;10.944;2022-11-15T06:22:31;3.50;99.90
34099;DHT22;20374;49.474;10.944;2022-11-15T06:25:15;3.50;99.90
34099;DHT22;20374;49.474;10.944;2022-11-15T06:28:00;3.50;99.90
34099;DHT22;20374;49.474;10.944;2022-11-15T06:30:45;3.60;99.90
34099;DHT22;20374;49.474;10.944;2022-11-15T06:33:29;3.70;99.90
34099;DHT22;20374;49.474;10.944;2022-11-15T06:36:14;3.80;99.90
34099;DHT22;20374;49.474;10.944;2022-11-15T06:39:01;3.80;99.90
34099;DHT22;20374;49.474;10.944;2022-11-15T06:41:45;3.90;99.90
34099;DHT22;20374;49.474;10.944;2022-11-15T06:44:30;4.00;99.90
34099;DHT22;20374;49.474;10.944;2022-11-15T06:47:14;4.20;99.90
34099;DHT22;20374;49.474;10.944;2022-11-15T06:49:59;4.30;99.90
34099;DHT22;20374;49.474;10.944;2022-11-15T06:52:44;4.40;99.90
34099;DHT22;20374;49.474;10.944;2022-11-15T06:55:28;4.40;99.90
34099;DHT22;20374;49.474;10.944;2022-11-15T06:58:13;4.40;99.90
34099;DHT22;20374;49.474;10.944;2022-11-15T07:01:03;4.40;99.90
34099;DHT22;20374;49.474;10.944;2022-11-15T07:03:47;4.50;99.90
34099;DHT22;20374;49.474;10.944;2022-11-15T07:06:32;4.50;99.90
34099;DHT22;20374;49.474;10.944;2022-11-15T07:09:16;4.70;99.90
34099;DHT22;20374;49.474;10.944;2022-11-15T07:12:01;4.70;99.90
34099;DHT22;20374;49.474;10.944;2022-11-15T07:14:45;4.80;99.90
34099;DHT22;20374;49.474;10.944;2022-11-15T07:17:30;4.90;99.90
34099;DHT22;20374;49.474;10.944;2022-11-15T07:20:15;5.00;99.90
34099;DHT22;20374;49.474;10.944;2022-11-15T07:23:01;5.00;99.90
34099;DHT22;20374;49.474;10.944;2022-11-15T07:25:46;5.10;99.90
34099;DHT22;20374;49.474;10.944;2022-11-15T07:28:30;5.60;99.90
34099;DHT22;20374;49.474;10.944;2022-11-15T07:31:15;6.70;99.90
34099;DHT22;20374;49.474;10.944;2022-11-15T07:34:00;7.70;99.90
34099;DHT22;20374;49.474;10.944;2022-11-15T07:36:44;8.60;99.90
34099;DHT22;20374;49.474;10.944;2022-11-15T07:39:29;9.30;99.90
34099;DHT22;20374;49.474;10.944;2022-11-15T07:42:14;10.10;99.90
34099;DHT22;20374;49.474;10.944;2022-11-15T07:45:16;10.80;99.90
34099;DHT22;20374;49.474;10.944;2022-11-15T07:48:01;11.20;99.90
34099;DHT22;20374;49.474;10.944;2022-11-15T07:50:46;11.70;99.90
34099;DHT22;20374;49.474;10.944;2022-11-15T07:53:30;11.80;99.90
34099;DHT22;20374;49.474;10.944;2022-11-15T07:56:15;11.70;99.90
34099;DHT22;20374;49.474;10.944;2022-11-15T07:58:59;12.10;99.90
34099;DHT22;20374;49.474;10.944;2022-11-15T08:01:45;12.50;99.90
34099;DHT22;20374;49.474;10.944;2022-11-15T08:04:29;13.00;99.90
34099;DHT22;20374;49.474;10.944;2022-11-15T08:07:14;12.80;99.40
34099;DHT22;20374;49.474;10.944;2022-11-15T08:09:59;11.80;99.90
34099;DHT22;20374;49.474;10.944;2022-11-15T08:12:45;10.80;99.90
34099;DHT22;20374;49.474;10.944;2022-11-15T08:15:30;9.90;99.90
34099;DHT22;20374;49.474;10.944;2022-11-15T08:18:16;9.40;99.90
34099;DHT22;20374;49.474;10.944;2022-11-15T08:21:01;9.00;99.90
34099;DHT22;20374;49.474;10.944;2022-11-15T08:23:45;8.50;99.90
34099;DHT22;20374;49.474;10.944;2022-11-15T08:26:30;8.30;99.90
34099;DHT22;20374;49.474;10.944;2022-11-15T08:29:15;8.20;99.90
34099;DHT22;20374;49.474;10.944;2022-11-15T08:31:59;8.10;99.90
34099;DHT22;20374;49.474;10.944;2022-11-15T08:34:44;8.10;99.90
34099;DHT22;20374;49.474;10.944;2022-11-15T08:37:28;8.20;99.90
34099;DHT22;20374;49.474;10.944;2022-11-15T08:40:14;8.40;99.90
34099;DHT22;20374;49.474;10.944;2022-11-15T08:42:58;8.50;99.90
34099;DHT22;20374;49.474;10.944;2022-11-15T08:45:46;8.70;99.90
34099;DHT22;20374;49.474;10.944;2022-11-15T08:48:31;8.80;99.90
34099;DHT22;20374;49.474;10.944;2022-11-15T08:51:16;8.90;99.90
34099;DHT22;20374;49.474;10.944;2022-11-15T08:54:01;9.10;99.90
34099;DHT22;20374;49.474;10.944;2022-11-15T08:56:46;9.10;99.90
34099;DHT22;20374;49.474;10.944;2022-11-15T08:59:30;9.20;99.90
34099;DHT22;20374;49.474;10.944;2022-11-15T09:02:15;9.10;99.90
34099;DHT22;20374;49.474;10.944;2022-11-15T09:04:59;9.20;99.90
34099;DHT22;20374;49.474;10.944;2022-11-15T09:07:44;9.20;99.90
34099;DHT22;20374;49.474;10.944;2022-11-15T09:10:29;9.30;99.90
34099;DHT22;20374;49.474;10.944;2022-11-15T09:13:14;9.40;99.90
34099;DHT22;20374;49.474;10.944;2022-11-15T09:16:00;9.40;99.90
34099;DHT22;20374;49.474;10.944;2022-11-15T09:18:44;9.50;99.90
34099;DHT22;20374;49.474;10.944;2022-11-15T09:21:30;9.40;99.90
34099;DHT22;20374;49.474;10.944;2022-11-15T09:24:14;9.50;99.90
34099;DHT22;20374;49.474;10.944;2022-11-15T09:26:59;9.40;99.90
34099;DHT22;20374;49.474;10.944;2022-11-15T09:29:43;9.50;99.90
34099;DHT22;20374;49.474;10.944;2022-11-15T09:32:29;9.50;99.90
34099;DHT22;20374;49.474;10.944;2022-11-15T09:35:16;9.50;99.90
34099;DHT22;20374;49.474;10.944;2022-11-15T09:38:01;9.60;99.90
34099;DHT22;20374;49.474;10.944;2022-11-15T09:40:52;9.70;99.90
34099;DHT22;20374;49.474;10.944;2022-11-15T09:50:38;9.80;99.90
34099;DHT22;20374;49.474;10.944;2022-11-15T09:53:11;9.90;99.90
34099;DHT22;20374;49.474;10.944;2022-11-15T09:55:48;9.90;99.90
34099;DHT22;20374;49.474;10.944;2022-11-15T10:01:00;10.10;99.90
34099;DHT22;20374;49.474;10.944;2022-11-15T10:03:37;10.20;99.90
34099;DHT22;20374;49.474;10.944;2022-11-15T10:06:13;10.30;99.90
34099;DHT22;20374;49.474;10.944;2022-11-15T10:11:32;10.40;99.90
34099;DHT22;20374;49.474;10.944;2022-11-15T10:14:14;10.50;99.90
34099;DHT22;20374;49.474;10.944;2022-11-15T10:22:05;10.80;99.90
34099;DHT22;20374;49.474;10.944;2022-11-15T10:24:43;10.90;99.90
34099;DHT22;20374;49.474;10.944;2022-11-15T10:27:17;10.90;99.90
34099;DHT22;20374;49.474;10.944;2022-11-15T10:29:48;10.90;99.90
34099;DHT22;20374;49.474;10.944;2022-11-15T10:32:17;11.00;99.90
34099;DHT22;20374;49.474;10.944;2022-11-15T10:34:44;11.20;99.90
34099;DHT22;20374;49.474;10.944;2022-11-15T10:37:10;11.30;99.90
34099;DHT22;20374;49.474;10.944;2022-11-15T10:39:37;11.40;99.90
34099;DHT22;20374;49.474;10.944;2022-11-15T10:42:27;11.50;99.90
34099;DHT22;20374;49.474;10.944;2022-11-15T10:44:53;11.60;99.90
34099;DHT22;20374;49.474;10.944;2022-11-15T10:55:47;12.10;99.90
34099;DHT22;20374;49.474;10.944;2022-11-15T11:00:48;12.30;99.90
34099;DHT22;20374;49.474;10.944;2022-11-15T11:03:44;12.40;99.90
34099;DHT22;20374;49.474;10.944;2022-11-15T11:06:16;12.50;99.90
34099;DHT22;20374;49.474;10.944;2022-11-15T11:08:57;12.60;99.90
34099;DHT22;20374;49.474;10.944;2022-11-15T11:11:25;12.70;99.90
34099;DHT22;20374;49.474;10.944;2022-11-15T11:14:13;12.90;99.90
34099;DHT22;20374;49.474;10.944;2022-11-15T11:30:47;13.90;99.90
34099;DHT22;20374;49.474;10.944;2022-11-15T11:36:24;14.20;99.70
34099;DHT22;20374;49.474;10.944;2022-11-15T11:45:22;14.50;98.10
34099;DHT22;20374;49.474;10.944;2022-11-15T11:50:38;14.50;98.00
34099;DHT22;20374;49.474;10.944;2022-11-15T11:55:58;14.30;98.90
34099;DHT22;20374;49.474;10.944;2022-11-15T11:58:36;14.10;98.70
34099;DHT22;20374;49.474;10.944;2022-11-15T12:03:44;14.20;98.90
34099;DHT22;20374;49.474;10.944;2022-11-15T12:06:45;14.30;98.90
34099;DHT22;20374;49.474;10.944;2022-11-15T12:12:25;14.40;98.10
34099;DHT22;20374;49.474;10.944;2022-11-15T12:15:10;14.40;97.90
34099;DHT22;20374;49.474;10.944;2022-11-15T12:17:40;14.30;99.60
34099;DHT22;20374;49.474;10.944;2022-11-15T12:20:16;14.40;98.70
34099;DHT22;20374;49.474;10.944;2022-11-15T12:28:19;14.40;98.30
34099;DHT22;20374;49.474;10.944;2022-11-15T12:31:15;14.40;98.90
34099;DHT22;20374;49.474;10.944;2022-11-15T12:33:45;14.40;98.00
34099;DHT22;20374;49.474;10.944;2022-11-15T12:36:32;14.40;99.60
34099;DHT22;20374;49.474;10.944;2022-11-15T12:39:04;14.40;98.70
34099;DHT22;20374;49.474;10.944;2022-11-15T12:41:32;14.40;98.40
34099;DHT22;20374;49.474;10.944;2022-11-15T12:43:59;14.50;97.80
34099;DHT22;20374;49.474;10.944;2022-11-15T12:49:02;14.50;98.00
34099;DHT22;20374;49.474;10.944;2022-11-15T12:59:56;14.40;97.30
34099;DHT22;20374;49.474;10.944;2022-11-15T13:17:52;14.20;97.70
34099;DHT22;20374;49.474;10.944;2022-11-15T13:20:29;14.20;97.70
34099;DHT22;20374;49.474;10.944;2022-11-15T13:30:54;14.00;98.70
34099;DHT22;20374;49.474;10.944;2022-11-15T13:33:30;14.10;98.30
34099;DHT22;20374;49.474;10.944;2022-11-15T13:35:58;14.10;98.50
34099;DHT22;20374;49.474;10.944;2022-11-15T13:38:26;14.10;99.20
34099;DHT22;20374;49.474;10.944;2022-11-15T13:40:53;14.10;98.70
34099;DHT22;20374;49.474;10.944;2022-11-15T13:48:40;14.20;99.20
34099;DHT22;20374;49.474;10.944;2022-11-15T13:53:42;14.40;99.10
34099;DHT22;20374;49.474;10.944;2022-11-15T13:56:13;14.40;98.80
34099;DHT22;20374;49.474;10.944;2022-11-15T13:58:40;14.50;98.70
34099;DHT22;20374;49.474;10.944;2022-11-15T14:01:11;14.60;98.90
34099;DHT22;20374;49.474;10.944;2022-11-15T14:03:59;14.80;98.90
34099;DHT22;20374;49.474;10.944;2022-11-15T14:06:28;15.00;98.30
34099;DHT22;20374;49.474;10.944;2022-11-15T14:11:26;15.60;96.30
34099;DHT22;20374;49.474;10.944;2022-11-15T14:14:13;15.50;96.80
34099;DHT22;20374;49.474;10.944;2022-11-15T14:16:46;15.50;96.60
34099;DHT22;20374;49.474;10.944;2022-11-15T14:19:33;15.20;96.50
34099;DHT22;20374;49.474;10.944;2022-11-15T14:24:39;15.00;97.50
34099;DHT22;20374;49.474;10.944;2022-11-15T14:29:44;14.40;98.40
34099;DHT22;20374;49.474;10.944;2022-11-15T14:32:18;14.20;99.00
34099;DHT22;20374;49.474;10.944;2022-11-15T14:34:45;13.90;99.10
34099;DHT22;20374;49.474;10.944;2022-11-15T14:37:23;13.70;99.40
34099;DHT22;20374;49.474;10.944;2022-11-15T14:39:50;13.50;99.90
34099;DHT22;20374;49.474;10.944;2022-11-15T14:42:16;13.40;99.90
34099;DHT22;20374;49.474;10.944;2022-11-15T14:44:42;13.40;99.90
34099;DHT22;20374;49.474;10.944;2022-11-15T14:47:08;13.30;99.90
34099;DHT22;20374;49.474;10.944;2022-11-15T14:49:34;13.30;99.90
34099;DHT22;20374;49.474;10.944;2022-11-15T14:52:00;13.20;99.90
34099;DHT22;20374;49.474;10.944;2022-11-15T14:54:26;13.20;99.90
34099;DHT22;20374;49.474;10.944;2022-11-15T14:56:52;13.20;99.90
34099;DHT22;20374;49.474;10.944;2022-11-15T14:59:18;13.20;99.90
34099;DHT22;20374;49.474;10.944;2022-11-15T15:01:44;13.20;99.90
34099;DHT22;20374;49.474;10.944;2022-11-15T15:04:10;13.10;99.90
34099;DHT22;20374;49.474;10.944;2022-11-15T15:06:38;13.00;99.90
34099;DHT22;20374;49.474;10.944;2022-11-15T15:09:04;12.90;99.90
34099;DHT22;20374;49.474;10.944;2022-11-15T15:11:31;12.90;99.90
34099;DHT22;20374;49.474;10.944;2022-11-15T15:13:57;12.80;99.90
34099;DHT22;20374;49.474;10.944;2022-11-15T15:16:26;12.70;99.90
34099;DHT22;20374;49.474;10.944;2022-11-15T15:18:53;12.60;99.90
34099;DHT22;20374;49.474;10.944;2022-11-15T15:21:24;12.40;99.90
34099;DHT22;20374;49.474;10.944;2022-11-15T15:23:51;12.30;99.90
34099;DHT22;20374;49.474;10.944;2022-11-15T15:26:17;12.30;99.90
34099;DHT22;20374;49.474;10.944;2022-11-15T15:28:43;12.10;99.90
34099;DHT22;20374;49.474;10.944;2022-11-15T15:31:09;12.00;99.90
34099;DHT22;20374;49.474;10.944;2022-11-15T15:33:36;11.90;99.90
34099;DHT22;20374;49.474;10.944;2022-11-15T15:36:02;11.80;99.90
34099;DHT22;20374;49.474;10.944;2022-11-15T15:38:28;11.80;99.90
34099;DHT22;20374;49.474;10.944;2022-11-15T15:40:57;11.70;99.90
34099;DHT22;20374;49.474;10.944;2022-11-15T15:43:25;11.70;99.90
34099;DHT22;20374;49.474;10.944;2022-11-15T15:45:51;11.60;99.90
34099;DHT22;20374;49.474;10.944;2022-11-15T15:48:17;11.50;99.90
34099;DHT22;20374;49.474;10.944;2022-11-15T15:50:43;11.40;99.90
34099;DHT22;20374;49.474;10.944;2022-11-15T15:53:10;11.30;99.90
34099;DHT22;20374;49.474;10.944;2022-11-15T15:55:37;11.30;99.90
34099;DHT22;20374;49.474;10.944;2022-11-15T15:58:04;11.20;99.90
34099;DHT22;20374;49.474;10.944;2022-11-15T16:00:31;11.10;99.90
34099;DHT22;20374;49.474;10.944;2022-11-15T16:02:59;11.00;99.90
34099;DHT22;20374;49.474;10.944;2022-11-15T16:05:25;10.90;99.90
34099;DHT22;20374;49.474;10.944;2022-11-15T16:07:51;10.90;99.90
34099;DHT22;20374;49.474;10.944;2022-11-15T16:10:29;10.90;99.90
34099;DHT22;20374;49.474;10.944;2022-11-15T16:12:56;10.90;99.90
34099;DHT22;20374;49.474;10.944;2022-11-15T16:15:25;10.90;99.90
34099;DHT22;20374;49.474;10.944;2022-11-15T16:17:57;10.90;99.90
34099;DHT22;20374;49.474;10.944;2022-11-15T16:23:04;10.80;99.90
34099;DHT22;20374;49.474;10.944;2022-11-15T16:25:51;10.70;99.90
34099;DHT22;20374;49.474;10.944;2022-11-15T16:28:24;10.70;99.90
34099;DHT22;20374;49.474;10.944;2022-11-15T16:31:02;10.70;99.90
34099;DHT22;20374;49.474;10.944;2022-11-15T16:33:29;10.70;99.90
34099;DHT22;20374;49.474;10.944;2022-11-15T16:35:54;10.70;99.90
34099;DHT22;20374;49.474;10.944;2022-11-15T16:38:20;10.70;99.90
34099;DHT22;20374;49.474;10.944;2022-11-15T16:40:47;10.60;99.90
34099;DHT22;20374;49.474;10.944;2022-11-15T16:43:13;10.60;99.90
34099;DHT22;20374;49.474;10.944;2022-11-15T16:45:38;10.50;99.90
34099;DHT22;20374;49.474;10.944;2022-11-15T16:48:05;10.50;99.90
34099;DHT22;20374;49.474;10.944;2022-11-15T16:50:33;10.50;99.90
34099;DHT22;20374;49.474;10.944;2022-11-15T16:53:07;10.50;99.90
34099;DHT22;20374;49.474;10.944;2022-11-15T16:55:34;10.50;99.90
34099;DHT22;20374;49.474;10.944;2022-11-15T16:58:00;10.50;99.90
34099;DHT22;20374;49.474;10.944;2022-11-15T17:00:26;10.50;99.90
34099;DHT22;20374;49.474;10.944;2022-11-15T17:02:52;10.50;99.90
34099;DHT22;20374;49.474;10.944;2022-11-15T17:05:21;10.60;99.90
34099;DHT22;20374;49.474;10.944;2022-11-15T17:07:49;10.60;99.90
34099;DHT22;20374;49.474;10.944;2022-11-15T17:10:16;10.60;99.90
34099;DHT22;20374;49.474;10.944;2022-11-15T17:12:43;10.60;99.90
34099;DHT22;20374;49.474;10.944;2022-11-15T17:15:11;10.60;99.90
34099;DHT22;20374;49.474;10.944;2022-11-15T17:17:42;10.60;99.90
34099;DHT22;20374;49.474;10.944;2022-11-15T17:20:16;10.60;99.90
34099;DHT22;20374;49.474;10.944;2022-11-15T17:22:42;10.60;99.90
34099;DHT22;20374;49.474;10.944;2022-11-15T17:25:08;10.60;99.90
34099;DHT22;20374;49.474;10.944;2022-11-15T17:27:35;10.50;99.90
34099;DHT22;20374;49.474;10.944;2022-11-15T17:30:01;10.60;99.90
34099;DHT22;20374;49.474;10.944;2022-11-15T17:32:26;10.60;99.90
34099;DHT22;20374;49.474;10.944;2022-11-15T17:34:52;10.60;99.90
34099;DHT22;20374;49.474;10.944;2022-11-15T17:37:18;10.70;99.90
34099;DHT22;20374;49.474;10.944;2022-11-15T17:39:44;10.70;99.90
34099;DHT22;20374;49.474;10.944;2022-11-15T17:42:10;10.70;99.90
34099;DHT22;20374;49.474;10.944;2022-11-15T17:44:36;10.60;99.90
34099;DHT22;20374;49.474;10.944;2022-11-15T17:47:02;10.70;99.90
34099;DHT22;20374;49.474;10.944;2022-11-15T17:49:28;10.60;99.90
34099;DHT22;20374;49.474;10.944;2022-11-15T17:51:54;10.70;99.90
34099;DHT22;20374;49.474;10.944;2022-11-15T17:54:20;10.60;99.90
34099;DHT22;20374;49.474;10.944;2022-11-15T17:56:45;10.60;99.90
34099;DHT22;20374;49.474;10.944;2022-11-15T17:59:11;10.60;99.90
34099;DHT22;20374;49.474;10.944;2022-11-15T18:01:37;10.60;99.90
34099;DHT22;20374;49.474;10.944;2022-11-15T18:04:07;10.60;99.90
34099;DHT22;20374;49.474;10.944;2022-11-15T18:06:34;10.60;99.90
34099;DHT22;20374;49.474;10.944;2022-11-15T18:09:01;10.60;99.90
34099;DHT22;20374;49.474;10.944;2022-11-15T18:11:36;10.60;99.90
34099;DHT22;20374;49.474;10.944;2022-11-15T18:14:06;10.70;99.90
34099;DHT22;20374;49.474;10.944;2022-11-15T18:16:35;10.70;99.90
34099;DHT22;20374;49.474;10.944;2022-11-15T18:19:01;10.70;99.90
34099;DHT22;20374;49.474;10.944;2022-11-15T18:21:33;10.70;99.90
34099;DHT22;20374;49.474;10.944;2022-11-15T18:24:02;10.60;99.90
34099;DHT22;20374;49.474;10.944;2022-11-15T18:26:29;10.60;99.90
34099;DHT22;20374;49.474;10.944;2022-11-15T18:29:00;10.60;99.90
34099;DHT22;20374;49.474;10.944;2022-11-15T18:31:28;10.60;99.90
34099;DHT22;20374;49.474;10.944;2022-11-15T18:33:56;10.50;99.90
34099;DHT22;20374;49.474;10.944;2022-11-15T18:36:25;10.60;99.90
34099;DHT22;20374;49.474;10.944;2022-11-15T18:39:01;10.50;99.90
34099;DHT22;20374;49.474;10.944;2022-11-15T18:41:27;10.50;99.90
34099;DHT22;20374;49.474;10.944;2022-11-15T18:43:54;10.50;99.90
34099;DHT22;20374;49.474;10.944;2022-11-15T18:46:23;10.40;99.90
34099;DHT22;20374;49.474;10.944;2022-11-15T18:48:51;10.40;99.90
34099;DHT22;20374;49.474;10.944;2022-11-15T18:51:19;10.40;99.90
34099;DHT22;20374;49.474;10.944;2022-11-15T18:53:45;10.30;99.90
34099;DHT22;20374;49.474;10.944;2022-11-15T18:56:17;10.30;99.90
34099;DHT22;20374;49.474;10.944;2022-11-15T18:58:48;10.30;99.90
34099;DHT22;20374;49.474;10.944;2022-11-15T19:01:22;10.30;99.90